createdAt,value
2023-03-06T00:01:23.647Z,27.84
2023-03-06T00:03:56.073Z,27.86
2023-03-06T00:06:26.406Z,27.93
2023-03-06T00:08:56.948Z,27.95
2023-03-06T00:11:28.478Z,27.95
2023-03-06T00:13:59.962Z,28.06
2023-03-06T00:16:30.435Z,28.12
2023-03-06T00:19:01.415Z,28.15
2023-03-06T00:21:32.346Z,28.26
2023-03-06T00:24:03.205Z,28.36
2023-03-06T00:26:34.952Z,28.48
2023-03-06T00:29:05.372Z,28.53
2023-03-06T00:31:37.218Z,28.60
2023-03-06T00:34:08.549Z,28.64
2023-03-06T00:36:39.836Z,28.67
2023-03-06T00:39:12.260Z,28.72
2023-03-06T00:41:44.871Z,28.80
2023-03-06T00:44:16.598Z,28.87
2023-03-06T00:46:47.252Z,28.91
2023-03-06T00:49:18.155Z,28.96
2023-03-06T00:51:48.730Z,29.03
2023-03-06T00:54:19.385Z,29.08
2023-03-06T00:56:50.418Z,29.12
2023-03-06T00:59:21.194Z,29.16
2023-03-06T01:01:52.215Z,29.20
2023-03-06T01:04:22.999Z,29.25
2023-03-06T01:06:55.528Z,29.29
2023-03-06T01:09:27.263Z,29.34
2023-03-06T01:11:57.978Z,29.43
2023-03-06T01:14:29.498Z,29.43
2023-03-06T01:17:00.720Z,29.41
2023-03-06T01:19:32.015Z,29.49
2023-03-06T01:22:02.614Z,29.57
2023-03-06T01:24:34.939Z,29.58
2023-03-06T01:27:05.315Z,29.63
2023-03-06T01:29:35.804Z,29.65
2023-03-06T01:32:06.863Z,29.71
2023-03-06T01:34:37.373Z,29.76
2023-03-06T01:37:08.209Z,29.81
2023-03-06T01:39:38.900Z,29.82
2023-03-06T01:42:09.838Z,29.87
2023-03-06T01:45:01.021Z,29.85
2023-03-06T01:47:31.697Z,30.03
2023-03-06T01:50:04.913Z,29.99
2023-03-06T01:52:39.544Z,30.08
2023-03-06T01:55:17.819Z,30.12
2023-03-06T01:57:58.712Z,30.15
2023-03-06T02:00:31.486Z,30.18
2023-03-06T02:03:20.591Z,30.26
2023-03-06T02:05:51.481Z,30.31
2023-03-06T02:08:24.402Z,30.30
2023-03-06T02:11:14.427Z,30.33
2023-03-06T02:13:45.940Z,30.39
2023-03-06T02:16:18.575Z,30.30
2023-03-06T02:18:49.262Z,30.48
2023-03-06T02:21:30.377Z,30.52
2023-03-06T02:24:15.842Z,30.55
2023-03-06T02:26:46.780Z,30.57
2023-03-06T02:29:29.601Z,30.61
2023-03-06T02:32:03.539Z,30.66
2023-03-06T02:34:40.986Z,30.64
2023-03-06T02:37:12.833Z,30.71
2023-03-06T02:39:48.421Z,30.77
2023-03-06T02:42:26.059Z,30.78
2023-03-06T02:44:59.213Z,30.78
2023-03-06T02:47:31.990Z,30.88
2023-03-06T02:50:03.486Z,30.94
2023-03-06T02:52:34.819Z,31.05
2023-03-06T02:55:06.059Z,31.13
2023-03-06T02:57:40.519Z,31.12
2023-03-06T03:00:15.946Z,31.23
2023-03-06T03:02:47.860Z,31.29
2023-03-06T03:05:18.860Z,31.38
2023-03-06T03:07:54.576Z,31.33
2023-03-06T03:10:26.801Z,31.45
2023-03-06T03:12:58.916Z,31.49
2023-03-06T03:15:30.062Z,31.52
2023-03-06T03:18:03.832Z,31.48
2023-03-06T03:20:35.738Z,31.51
2023-03-06T03:23:06.420Z,31.59
2023-03-06T03:25:37.369Z,31.59
2023-03-06T03:28:08.238Z,31.60
2023-03-06T03:30:42.368Z,31.56
2023-03-06T03:33:14.169Z,31.63
2023-03-06T03:35:46.458Z,31.61
2023-03-06T03:38:18.020Z,31.64
2023-03-06T03:40:49.277Z,31.64
2023-03-06T03:43:21.522Z,31.70
2023-03-06T03:45:54.921Z,31.71
2023-03-06T03:48:26.942Z,31.73
2023-03-06T03:51:14.659Z,31.83
2023-03-06T03:53:48.793Z,31.80
2023-03-06T03:56:28.311Z,31.85
2023-03-06T03:59:05.058Z,31.96
2023-03-06T04:01:42.695Z,31.92
2023-03-06T04:04:14.411Z,31.95
2023-03-06T04:06:49.819Z,31.98
2023-03-06T04:09:22.069Z,32.05
2023-03-06T04:11:53.660Z,32.06
2023-03-06T04:14:24.052Z,32.07
2023-03-06T04:16:55.000Z,32.13
2023-03-06T04:19:27.693Z,32.16
2023-03-06T04:22:00.842Z,32.21
2023-03-06T04:24:33.444Z,32.18
2023-03-06T04:27:04.891Z,32.23
2023-03-06T04:29:35.618Z,32.31
2023-03-06T04:32:06.891Z,32.33
2023-03-06T04:34:39.267Z,32.37
2023-03-06T04:37:16.197Z,32.40
2023-03-06T04:39:47.238Z,32.44
2023-03-06T04:42:21.518Z,32.44
2023-03-06T04:44:52.580Z,32.48
2023-03-06T04:47:24.014Z,32.38
2023-03-06T04:49:54.676Z,32.45
2023-03-06T04:52:34.532Z,32.51
2023-03-06T04:55:09.588Z,32.59
2023-03-06T04:57:41.774Z,32.73
2023-03-06T05:00:21.859Z,32.79
2023-03-06T05:02:53.467Z,32.86
2023-03-06T05:05:24.429Z,32.87
2023-03-06T05:07:56.132Z,32.95
2023-03-06T05:10:26.957Z,33.02
2023-03-06T05:12:57.642Z,33.04
2023-03-06T05:15:28.146Z,33.09
2023-03-06T05:18:00.141Z,33.15
2023-03-06T05:20:31.411Z,33.15
2023-03-06T05:23:02.323Z,33.19
2023-03-06T05:25:33.261Z,33.22
2023-03-06T05:28:04.105Z,33.30
2023-03-06T05:30:35.168Z,33.35
2023-03-06T05:33:06.415Z,33.38
2023-03-06T05:35:37.145Z,33.41
2023-03-06T05:38:07.492Z,33.41
2023-03-06T05:40:42.704Z,33.45
2023-03-06T05:43:13.688Z,33.49
2023-03-06T05:45:46.413Z,33.55
2023-03-06T05:48:17.132Z,33.59
2023-03-06T05:50:48.586Z,33.70
2023-03-06T05:53:19.375Z,33.81
2023-03-06T05:56:00.974Z,33.86
2023-03-06T05:58:33.050Z,33.95
2023-03-06T06:01:16.308Z,33.99
2023-03-06T06:03:48.681Z,34.06
2023-03-06T06:06:19.968Z,34.12
2023-03-06T06:08:51.020Z,34.19
2023-03-06T06:11:22.169Z,34.26
2023-03-06T06:13:52.988Z,34.34
2023-03-06T06:16:24.108Z,34.36
2023-03-06T06:18:57.325Z,34.41
2023-03-06T06:21:30.892Z,34.44
2023-03-06T06:24:03.544Z,34.55
2023-03-06T06:26:34.496Z,34.54
2023-03-06T06:29:06.779Z,34.48
2023-03-06T06:31:37.881Z,34.33
2023-03-06T06:34:09.401Z,34.30
2023-03-06T06:36:40.899Z,34.16
2023-03-06T06:39:12.578Z,34.16
2023-03-06T06:41:59.312Z,34.16
2023-03-06T06:44:33.061Z,34.09
2023-03-06T06:49:57.166Z,33.95
2023-03-06T06:52:28.426Z,33.88
2023-03-06T06:54:58.876Z,33.78
2023-03-06T06:57:30.116Z,33.77
2023-03-06T07:00:00.752Z,33.68
2023-03-06T07:02:33.144Z,33.64
2023-03-06T07:05:05.501Z,33.56
2023-03-06T07:07:39.086Z,33.52
2023-03-06T07:10:20.016Z,33.50
2023-03-06T07:12:54.812Z,33.56
2023-03-06T07:15:28.033Z,33.57
2023-03-06T07:17:59.091Z,33.59
2023-03-06T07:20:29.653Z,33.61
2023-03-06T07:23:00.262Z,33.52
2023-03-06T07:25:31.004Z,33.54
2023-03-06T07:28:02.956Z,33.61
2023-03-06T07:30:34.231Z,33.64
2023-03-06T07:33:05.128Z,33.66
2023-03-06T07:35:35.912Z,33.67
2023-03-06T07:38:07.103Z,33.66
2023-03-06T07:40:39.955Z,33.69
2023-03-06T07:43:19.055Z,33.66
2023-03-06T07:46:02.237Z,33.66
2023-03-06T07:48:32.776Z,33.69
2023-03-06T07:51:09.060Z,33.67
2023-03-06T07:53:39.420Z,33.70
2023-03-06T07:56:12.051Z,33.68
2023-03-06T07:58:46.216Z,33.63
2023-03-06T08:01:22.780Z,33.60
2023-03-06T08:03:54.061Z,33.64
2023-03-06T08:06:26.990Z,33.64
2023-03-06T08:08:58.236Z,33.62
2023-03-06T08:11:31.069Z,33.63
2023-03-06T08:14:02.088Z,33.59
2023-03-06T08:16:32.499Z,33.54
2023-03-06T08:19:03.571Z,33.55
2023-03-06T08:21:34.349Z,33.51
2023-03-06T08:24:06.738Z,33.41
2023-03-06T08:26:38.189Z,33.40
2023-03-06T08:29:09.164Z,33.31
2023-03-06T08:31:42.052Z,33.29
2023-03-06T08:34:14.994Z,33.26
2023-03-06T08:36:45.580Z,33.24
2023-03-06T08:39:16.803Z,33.18
2023-03-06T08:41:47.222Z,33.13
2023-03-06T08:44:20.370Z,33.12
2023-03-06T08:46:50.913Z,33.16
2023-03-06T08:49:22.597Z,33.12
2023-03-06T08:51:53.152Z,33.10
2023-03-06T08:54:23.968Z,33.06
2023-03-06T08:56:55.198Z,32.99
2023-03-06T08:59:26.307Z,32.95
2023-03-06T09:01:57.058Z,32.92
2023-03-06T09:04:27.838Z,32.84
2023-03-06T09:07:01.342Z,32.83
2023-03-06T09:09:32.413Z,32.80
2023-03-06T09:12:02.987Z,32.77
2023-03-06T09:14:33.738Z,32.74
2023-03-06T09:17:05.084Z,32.65
2023-03-06T09:19:35.870Z,32.63
2023-03-06T09:22:06.675Z,32.59
2023-03-06T09:24:37.186Z,32.60
2023-03-06T09:27:10.025Z,32.65
2023-03-06T09:29:40.709Z,32.61
2023-03-06T09:32:13.541Z,32.55
2023-03-06T09:34:44.250Z,32.58
2023-03-06T09:37:16.345Z,32.51
2023-03-06T09:39:47.673Z,32.45
2023-03-06T09:42:20.848Z,32.46
2023-03-06T09:45:03.416Z,32.35
2023-03-06T09:47:50.940Z,32.35
2023-03-06T09:50:46.631Z,32.36
2023-03-06T09:53:43.811Z,32.28
2023-03-06T09:56:21.652Z,32.26
2023-03-06T09:58:56.874Z,32.21
2023-03-06T10:01:34.013Z,32.18
2023-03-06T10:04:32.999Z,32.14
2023-03-06T10:07:30.755Z,32.08
2023-03-06T10:10:26.516Z,32.01
2023-03-06T10:13:44.593Z,31.99
2023-03-06T10:16:25.119Z,31.98
2023-03-06T10:18:59.495Z,31.82
2023-03-06T10:22:14.346Z,31.80
2023-03-06T10:25:08.792Z,31.79
2023-03-06T10:27:48.419Z,31.73
2023-03-06T10:30:41.945Z,31.65
2023-03-06T10:33:29.739Z,31.65
2023-03-06T10:36:00.574Z,31.61
2023-03-06T10:38:33.834Z,31.58
2023-03-06T10:41:13.631Z,31.55
2023-03-06T10:44:06.946Z,31.50
2023-03-06T10:46:45.369Z,31.43
2023-03-06T10:49:38.814Z,31.38
2023-03-06T10:52:16.430Z,31.34
2023-03-06T10:54:49.328Z,31.32
2023-03-06T10:57:32.029Z,31.30
2023-03-06T11:00:07.040Z,31.23
2023-03-06T11:02:41.939Z,31.19
2023-03-06T11:05:22.196Z,31.12
2023-03-06T11:08:00.390Z,31.12
2023-03-06T11:10:32.455Z,31.06
2023-03-06T11:13:08.607Z,31.02
2023-03-06T11:15:39.144Z,30.99
2023-03-06T11:18:12.690Z,30.96
2023-03-06T11:20:52.159Z,30.94
2023-03-06T11:23:44.063Z,30.90
2023-03-06T11:26:28.054Z,30.77
2023-03-06T11:29:27.564Z,30.81
2023-03-06T11:32:18.164Z,30.78
2023-03-06T11:35:06.348Z,30.78
2023-03-06T11:37:50.427Z,30.79
2023-03-06T11:40:44.675Z,30.77
2023-03-06T11:43:20.833Z,30.77
2023-03-06T11:46:03.040Z,30.73
2023-03-06T11:48:40.883Z,30.76
2023-03-06T11:51:26.672Z,30.73
2023-03-06T11:54:02.923Z,30.73
2023-03-06T11:56:38.714Z,30.70
2023-03-06T11:59:31.896Z,30.69
2023-03-06T12:02:24.183Z,30.64
2023-03-06T12:04:58.808Z,30.64
2023-03-06T12:07:58.665Z,30.74
2023-03-06T12:10:34.678Z,30.70
2023-03-06T12:13:39.241Z,30.83
2023-03-06T12:16:25.770Z,30.81
2023-03-06T12:19:23.148Z,30.83
2023-03-06T12:22:14.513Z,30.87
2023-03-06T12:24:57.079Z,30.91
2023-03-06T12:27:53.637Z,30.95
2023-03-06T12:30:43.278Z,30.93
2023-03-06T12:33:34.816Z,30.93
2023-03-06T12:36:26.895Z,30.92
2023-03-06T12:38:57.846Z,30.90
2023-03-06T12:41:52.742Z,30.91
2023-03-06T12:44:45.576Z,30.89
2023-03-06T12:47:23.057Z,30.88
2023-03-06T12:49:57.975Z,30.87
2023-03-06T12:52:32.280Z,30.85
2023-03-06T12:55:07.369Z,30.85
2023-03-06T12:57:38.220Z,30.83
2023-03-06T13:00:12.964Z,30.79
2023-03-06T13:03:05.812Z,30.77
2023-03-06T13:06:22.833Z,30.79
2023-03-06T13:09:09.102Z,30.76
2023-03-06T13:11:51.378Z,30.76
2023-03-06T13:14:48.762Z,30.73
2023-03-06T13:17:26.308Z,30.72
2023-03-06T13:20:35.562Z,30.76
2023-03-06T13:23:30.793Z,30.69
2023-03-06T13:26:06.224Z,30.65
2023-03-06T13:28:48.115Z,30.67
2023-03-06T13:31:50.465Z,30.65
2023-03-06T13:34:33.288Z,30.65
2023-03-06T13:37:23.984Z,30.68
2023-03-06T13:39:57.032Z,30.63
2023-03-06T13:42:37.355Z,30.57
2023-03-06T13:45:26.464Z,30.59
2023-03-06T13:48:22.643Z,30.60
2023-03-06T13:50:52.085Z,30.62
2023-03-06T13:54:17.216Z,30.67
2023-03-06T13:57:25.501Z,30.66
2023-03-06T14:00:20.039Z,30.66
2023-03-06T14:03:21.056Z,30.62
2023-03-06T14:05:53.276Z,30.54
2023-03-06T14:08:34.108Z,30.53
2023-03-06T14:11:21.754Z,30.47
2023-03-06T14:13:55.518Z,30.39
2023-03-06T14:16:49.444Z,30.37
2023-03-06T14:19:21.037Z,30.35
2023-03-06T14:22:02.208Z,30.32
2023-03-06T14:24:39.664Z,30.33
2023-03-06T14:27:22.046Z,30.32
2023-03-06T14:29:55.582Z,30.28
2023-03-06T14:32:28.860Z,30.30
2023-03-06T14:35:01.222Z,30.28
2023-03-06T14:37:33.090Z,30.29
2023-03-06T14:40:04.725Z,30.29
2023-03-06T14:42:35.468Z,30.26
2023-03-06T14:45:20.118Z,30.26
2023-03-06T14:47:52.713Z,30.23
2023-03-06T14:50:31.995Z,30.22
2023-03-06T14:53:06.841Z,30.20
2023-03-06T14:55:38.611Z,30.19
2023-03-06T14:58:17.445Z,30.18
2023-03-06T15:00:51.540Z,30.18
2023-03-06T15:03:33.798Z,30.17
2023-03-06T15:06:04.838Z,30.15
2023-03-06T15:08:37.802Z,30.12
2023-03-06T15:11:09.278Z,30.11
2023-03-06T15:13:40.268Z,30.11
2023-03-06T15:16:20.569Z,30.10
2023-03-06T15:19:05.371Z,30.08
2023-03-06T15:21:39.772Z,30.07
2023-03-06T15:24:34.017Z,30.05
2023-03-06T15:27:06.853Z,30.01
2023-03-06T15:29:40.976Z,30.02
2023-03-06T15:32:31.202Z,30.00
2023-03-06T15:35:38.218Z,29.97
2023-03-06T15:38:30.467Z,29.95
2023-03-06T15:41:02.175Z,29.95
2023-03-06T15:43:39.226Z,29.91
2023-03-06T15:46:09.749Z,29.91
2023-03-06T15:48:40.096Z,29.86
2023-03-06T15:51:10.609Z,29.88
2023-03-06T15:53:41.169Z,29.89
2023-03-06T15:56:13.043Z,29.87
2023-03-06T15:58:46.700Z,29.82
2023-03-06T16:01:18.957Z,29.88
2023-03-06T16:03:52.344Z,29.86
2023-03-06T16:06:28.557Z,29.85
2023-03-06T16:08:59.146Z,29.80
2023-03-06T16:11:41.943Z,29.73
2023-03-06T16:14:22.022Z,29.74
2023-03-06T16:16:55.157Z,29.79
2023-03-06T16:19:27.808Z,29.75
2023-03-06T16:21:59.872Z,29.79
2023-03-06T16:24:31.713Z,29.73
2023-03-06T16:27:03.705Z,29.67
2023-03-06T16:29:34.523Z,29.69
2023-03-06T16:32:05.668Z,29.70
2023-03-06T16:34:36.387Z,29.66
2023-03-06T16:37:13.535Z,29.63
2023-03-06T16:39:44.463Z,29.62
2023-03-06T16:42:19.665Z,29.64
2023-03-06T16:44:50.791Z,29.63
2023-03-06T16:47:21.507Z,29.64
2023-03-06T16:49:56.938Z,29.59
2023-03-06T16:52:27.226Z,29.59
2023-03-06T16:54:57.692Z,29.54
2023-03-06T16:57:32.415Z,29.52
2023-03-06T17:00:02.845Z,29.47
2023-03-06T17:02:33.875Z,29.44
2023-03-06T17:05:04.430Z,29.40
2023-03-06T17:07:35.944Z,29.39
2023-03-06T17:10:10.283Z,29.37
2023-03-06T17:12:40.937Z,29.35
2023-03-06T17:15:12.284Z,29.29
2023-03-06T17:17:42.956Z,29.29
2023-03-06T17:20:14.542Z,29.27
2023-03-06T17:22:45.138Z,29.27
2023-03-06T17:25:15.891Z,29.27
2023-03-06T17:27:46.486Z,29.24
2023-03-06T17:30:18.022Z,29.21
2023-03-06T17:32:48.741Z,29.15
2023-03-06T17:35:21.446Z,29.20
2023-03-06T17:37:55.203Z,29.17
2023-03-06T17:40:25.484Z,29.14
2023-03-06T17:42:56.005Z,29.12
2023-03-06T17:45:26.439Z,29.10
2023-03-06T17:47:57.846Z,29.10
2023-03-06T17:50:28.301Z,29.05
2023-03-06T17:52:58.867Z,29.05
2023-03-06T17:55:30.852Z,29.02
2023-03-06T17:58:01.318Z,29.03
2023-03-06T18:00:31.637Z,29.02
2023-03-06T18:03:03.277Z,28.96
2023-03-06T18:05:33.654Z,28.95
2023-03-06T18:08:04.874Z,28.93
2023-03-06T18:10:36.025Z,28.96
2023-03-06T18:13:06.978Z,28.92
2023-03-06T18:15:41.483Z,28.93
2023-03-06T18:18:11.755Z,28.90
2023-03-06T18:20:43.919Z,28.90
2023-03-06T18:23:15.298Z,28.87
2023-03-06T18:25:45.683Z,28.89
2023-03-06T18:28:18.612Z,28.85
2023-03-06T18:30:49.507Z,28.83
2023-03-06T18:33:20.460Z,28.83
2023-03-06T18:35:50.795Z,28.80
2023-03-06T18:38:21.945Z,28.79
2023-03-06T18:40:52.620Z,28.74
2023-03-06T18:43:26.960Z,28.76
2023-03-06T18:45:59.947Z,28.71
2023-03-06T18:48:33.757Z,28.72
2023-03-06T18:51:09.295Z,28.70
2023-03-06T18:53:41.019Z,28.71
2023-03-06T18:56:22.888Z,28.70
2023-03-06T18:58:53.944Z,28.65
2023-03-06T19:01:25.397Z,28.62
2023-03-06T19:03:56.090Z,28.63
2023-03-06T19:06:27.947Z,28.62
2023-03-06T19:09:03.180Z,28.59
2023-03-06T19:11:44.744Z,28.60
2023-03-06T19:14:16.065Z,28.54
2023-03-06T19:16:46.461Z,28.54
2023-03-06T19:19:17.351Z,28.52
2023-03-06T19:21:47.974Z,28.52
2023-03-06T19:24:18.373Z,28.52
2023-03-06T19:26:49.265Z,28.51
2023-03-06T19:29:19.873Z,28.47
2023-03-06T19:31:51.763Z,28.45
2023-03-06T19:34:22.309Z,28.43
2023-03-06T19:36:53.245Z,28.43
2023-03-06T19:39:25.396Z,28.39
2023-03-06T19:41:59.790Z,28.38
2023-03-06T19:44:30.537Z,28.39
2023-03-06T19:47:02.176Z,28.32
2023-03-06T19:49:36.224Z,28.32
2023-03-06T19:52:09.560Z,28.29
2023-03-06T19:54:40.310Z,28.28
2023-03-06T19:57:11.367Z,28.28
2023-03-06T19:59:41.943Z,28.24
2023-03-06T20:02:12.709Z,28.24
2023-03-06T20:04:43.392Z,28.21
2023-03-06T20:07:14.488Z,28.21
2023-03-06T20:09:44.970Z,28.22
2023-03-06T20:12:18.291Z,28.19
2023-03-06T20:14:49.056Z,28.19
2023-03-06T20:17:19.911Z,28.17
2023-03-06T20:19:50.967Z,28.13
2023-03-06T20:22:52.868Z,28.18
2023-03-06T20:25:23.443Z,28.13
2023-03-06T20:27:54.072Z,28.09
2023-03-06T20:30:37.479Z,28.08
2023-03-06T20:33:11.461Z,28.08
2023-03-06T20:35:43.639Z,28.03
2023-03-06T20:38:14.232Z,28.00
2023-03-06T20:40:45.230Z,28.00
2023-03-06T20:43:16.273Z,28.00
2023-03-06T20:45:59.365Z,27.99
2023-03-06T20:48:30.662Z,27.95
2023-03-06T20:51:06.848Z,27.94
2023-03-06T20:53:37.318Z,27.93
2023-03-06T20:56:08.398Z,27.92
2023-03-06T20:58:38.935Z,27.91
2023-03-06T21:01:09.618Z,27.90
2023-03-06T21:03:40.128Z,27.87
2023-03-06T21:06:10.704Z,27.86
2023-03-06T21:08:41.043Z,27.82
2023-03-06T21:11:11.743Z,27.79
2023-03-06T21:13:42.455Z,27.78
2023-03-06T21:16:17.901Z,27.77
2023-03-06T21:18:48.816Z,27.74
2023-03-06T21:21:22.120Z,27.75
2023-03-06T21:23:52.822Z,27.74
2023-03-06T21:26:26.299Z,27.74
2023-03-06T21:28:59.903Z,27.73
2023-03-06T21:31:31.815Z,27.70
2023-03-06T21:34:04.849Z,27.68
2023-03-06T21:36:35.946Z,27.66
2023-03-06T21:39:07.139Z,27.64
2023-03-06T21:41:39.038Z,27.61
2023-03-06T21:44:09.730Z,27.59
2023-03-06T21:46:42.441Z,27.56
2023-03-06T21:49:14.485Z,27.56
2023-03-06T21:51:45.011Z,27.54
2023-03-06T21:54:15.448Z,27.54
2023-03-06T21:56:45.887Z,27.54
2023-03-06T21:59:16.577Z,27.49
2023-03-06T22:01:48.562Z,27.47
2023-03-06T22:04:19.398Z,27.49
2023-03-06T22:06:49.724Z,27.46
2023-03-06T22:09:20.899Z,27.46
2023-03-06T22:11:53.599Z,27.44
2023-03-06T22:14:24.157Z,27.44
2023-03-06T22:16:54.490Z,27.41
2023-03-06T22:19:25.274Z,27.40
2023-03-06T22:21:55.891Z,27.39
2023-03-06T22:24:26.538Z,27.38
2023-03-06T22:26:57.098Z,27.32
2023-03-06T22:29:27.858Z,27.33
2023-03-06T22:31:58.721Z,27.30
2023-03-06T22:34:37.882Z,27.31
2023-03-06T22:37:08.748Z,27.28
2023-03-06T22:39:39.602Z,27.27
2023-03-06T22:42:12.871Z,27.28
2023-03-06T22:44:43.808Z,27.28
2023-03-06T22:47:14.158Z,27.27
2023-03-06T22:49:48.547Z,27.27
2023-03-06T22:52:20.532Z,27.26
2023-03-06T22:54:51.386Z,27.25
2023-03-06T22:57:21.841Z,27.26
2023-03-06T22:59:52.396Z,27.26
2023-03-06T23:02:23.908Z,27.27
2023-03-06T23:04:55.159Z,27.26
2023-03-06T23:07:26.037Z,27.24
2023-03-06T23:10:04.122Z,27.25
2023-03-06T23:12:53.589Z,27.26
2023-03-06T23:15:42.793Z,27.25
2023-03-06T23:18:32.336Z,27.26
2023-03-06T23:21:23.736Z,27.26
2023-03-06T23:24:12.937Z,27.29
2023-03-06T23:26:43.329Z,27.31
2023-03-06T23:29:13.752Z,27.33
2023-03-06T23:31:44.788Z,27.34
2023-03-06T23:34:15.108Z,27.41
2023-03-06T23:36:45.493Z,27.45
2023-03-06T23:39:15.925Z,27.51
2023-03-06T23:41:46.361Z,27.56
2023-03-06T23:44:19.287Z,27.60
2023-03-06T23:46:50.444Z,27.64
2023-03-06T23:49:22.050Z,27.70
2023-03-06T23:51:52.928Z,27.73
2023-03-06T23:54:23.277Z,27.76
2023-03-06T23:56:54.193Z,27.79
2023-03-06T23:59:34.238Z,27.86
